Weather at Snowflake Municipal Airport [CLOSED]

Public forecast

Using degrees Fahrenheit for public forecast. Weather courtesy of forecast.io.

Closest aviation weather report (METAR) to Snowflake Municipal Airport

Closest report is Show Low Regional Airport, 17.7 nm (32.7 km) SSE. Retrieved 2022/01/22 19:35 UTC (11 minutes ago):

KSOW 221935Z AUTO 31005KT 10SM FEW065 FEW075 FEW100 02/M04 A3012 RMK AO2

Closest aviation forecast (TAF) to Snowflake Municipal Airport

Closest forecast is Winslow Lindbergh Regional Airport, 41.6 nm (77.0 km) NW. Retrieved 2022/01/22 18:39 UTC (1 hour ago):

TAF KINW 221736Z 2218/2318 05009KT P6SM SCT050 OVC080 FM230200 33007KT P6SM SCT050 BKN080